createdAt,value
2022-08-07T00:02:36.551Z,12.81
2022-08-07T00:05:28.968Z,12.76
2022-08-07T00:08:16.574Z,12.77
2022-08-07T00:11:07.494Z,12.71
2022-08-07T00:13:57.774Z,12.58
2022-08-07T00:16:46.451Z,12.57
2022-08-07T00:19:59.786Z,12.66
2022-08-07T00:22:42.321Z,12.61
2022-08-07T00:25:41.491Z,12.52
2022-08-07T00:28:33.658Z,12.50
2022-08-07T00:31:21.352Z,12.51
2022-08-07T00:34:08.953Z,12.43
2022-08-07T00:36:56.686Z,12.43
2022-08-07T00:39:45.039Z,12.41
2022-08-07T00:42:33.592Z,12.38
2022-08-07T00:45:23.701Z,12.32
2022-08-07T00:48:11.889Z,12.32
2022-08-07T00:51:00.387Z,12.28
2022-08-07T00:53:50.615Z,12.27
2022-08-07T00:56:42.414Z,12.26
2022-08-07T00:59:35.712Z,12.19
2022-08-07T01:02:28.527Z,12.16
2022-08-07T01:05:19.458Z,12.16
2022-08-07T01:08:08.957Z,12.17
2022-08-07T01:10:56.717Z,12.17
2022-08-07T01:13:56.087Z,12.11
2022-08-07T01:16:47.319Z,12.10
2022-08-07T01:19:38.496Z,12.12
2022-08-07T01:22:29.508Z,12.12
2022-08-07T01:25:40.399Z,12.12
2022-08-07T01:28:24.310Z,12.13
2022-08-07T01:31:15.490Z,12.10
2022-08-07T01:34:08.278Z,12.10
2022-08-07T01:36:57.942Z,12.09
2022-08-07T01:39:47.094Z,12.07
2022-08-07T01:42:40.249Z,12.06
2022-08-07T01:45:43.680Z,12.06
2022-08-07T01:48:34.163Z,11.98
2022-08-07T01:52:00.932Z,11.85
2022-08-07T01:54:36.498Z,11.85
2022-08-07T01:57:28.818Z,11.84
2022-08-07T02:00:17.778Z,11.79
2022-08-07T02:03:15.952Z,11.74
2022-08-07T02:06:31.614Z,11.68
2022-08-07T02:09:33.916Z,11.76
2022-08-07T02:12:32.902Z,11.63
2022-08-07T02:15:25.416Z,11.59
2022-08-07T02:18:15.762Z,11.64
2022-08-07T02:21:08.299Z,11.63
2022-08-07T02:24:04.498Z,11.56
2022-08-07T02:26:52.814Z,11.45
2022-08-07T02:29:43.589Z,11.44
2022-08-07T02:32:39.502Z,11.46
2022-08-07T02:36:29.499Z,11.48
2022-08-07T02:38:57.278Z,11.44
2022-08-07T02:41:47.254Z,11.42
2022-08-07T02:44:42.279Z,11.39
2022-08-07T02:47:45.234Z,11.40
2022-08-07T02:50:42.671Z,11.41
2022-08-07T02:53:38.704Z,11.40
2022-08-07T02:56:31.342Z,11.29
2022-08-07T02:59:24.156Z,11.23
2022-08-07T03:02:15.262Z,11.12
2022-08-07T03:05:04.895Z,11.07
2022-08-07T03:08:07.657Z,11.04
2022-08-07T03:10:58.230Z,11.21
2022-08-07T03:13:49.910Z,11.12
2022-08-07T03:16:38.380Z,11.08
2022-08-07T03:19:28.943Z,11.06
2022-08-07T03:22:18.860Z,11.01
2022-08-07T03:25:06.522Z,10.97
2022-08-07T03:27:59.210Z,10.93
2022-08-07T03:31:17.417Z,10.92
2022-08-07T03:34:07.981Z,10.89
2022-08-07T03:36:57.194Z,10.84
2022-08-07T03:40:13.203Z,10.82
2022-08-07T03:42:55.677Z,10.82
2022-08-07T03:45:47.872Z,10.83
2022-08-07T03:48:45.445Z,10.93
2022-08-07T03:51:47.859Z,10.92
2022-08-07T03:54:55.268Z,10.87
2022-08-07T03:58:34.994Z,10.83
2022-08-07T04:00:58.240Z,10.71
2022-08-07T04:03:53.598Z,10.66
2022-08-07T04:06:43.729Z,10.68
2022-08-07T04:09:45.465Z,10.72
2022-08-07T04:12:38.273Z,10.75
2022-08-07T04:15:25.422Z,10.78
2022-08-07T04:18:58.421Z,10.78
2022-08-07T04:21:21.811Z,10.81
2022-08-07T04:24:30.705Z,10.89
2022-08-07T04:27:35.950Z,10.89
2022-08-07T04:30:39.507Z,10.92
2022-08-07T04:33:36.242Z,11.00
2022-08-07T04:36:26.220Z,11.04
2022-08-07T04:39:13.650Z,11.07
2022-08-07T04:42:05.144Z,11.09
2022-08-07T04:45:02.703Z,11.13
2022-08-07T04:48:10.454Z,11.11
2022-08-07T04:51:16.166Z,11.16
2022-08-07T04:54:32.286Z,11.20
2022-08-07T04:58:15.111Z,11.26
2022-08-07T05:00:59.220Z,11.39
2022-08-07T05:04:24.849Z,11.41
2022-08-07T05:07:30.484Z,11.46
2022-08-07T05:10:37.604Z,11.53
2022-08-07T05:14:56.174Z,11.52
2022-08-07T05:16:52.749Z,11.54
2022-08-07T05:19:47.177Z,11.62
2022-08-07T05:22:36.275Z,11.63
2022-08-07T05:25:36.719Z,11.69
2022-08-07T05:28:36.662Z,11.80
2022-08-07T05:31:38.853Z,11.86
2022-08-07T05:34:28.410Z,11.97
2022-08-07T05:37:25.138Z,12.07
2022-08-07T05:40:18.710Z,12.14
2022-08-07T05:43:10.681Z,12.22
2022-08-07T05:46:01.237Z,12.24
2022-08-07T05:48:59.416Z,12.28
2022-08-07T05:51:47.984Z,12.53
2022-08-07T05:54:53.738Z,12.60
2022-08-07T05:57:44.958Z,12.94
2022-08-07T06:00:35.143Z,13.18
2022-08-07T06:03:24.053Z,13.49
2022-08-07T06:06:12.822Z,13.76
2022-08-07T06:09:06.613Z,13.86
2022-08-07T06:11:55.867Z,14.19
2022-08-07T06:14:49.535Z,14.33
2022-08-07T06:17:38.014Z,14.66
2022-08-07T06:20:49.780Z,14.84
2022-08-07T06:24:37.130Z,14.80
2022-08-07T06:26:42.434Z,14.85
2022-08-07T06:29:30.875Z,15.10
2022-08-07T06:32:18.036Z,15.43
2022-08-07T06:35:17.580Z,15.53
2022-08-07T06:38:06.273Z,15.52
2022-08-07T06:40:59.421Z,15.77
2022-08-07T06:43:59.542Z,15.74
2022-08-07T06:47:00.062Z,16.11
2022-08-07T06:49:58.694Z,16.21
2022-08-07T06:52:53.185Z,16.44
2022-08-07T06:56:00.032Z,16.70
2022-08-07T07:00:13.310Z,16.75
2022-08-07T07:01:58.803Z,16.68
2022-08-07T07:04:54.924Z,16.60
2022-08-07T07:07:59.243Z,16.98
2022-08-07T07:10:56.673Z,17.32
2022-08-07T07:13:57.641Z,17.59
2022-08-07T07:16:53.453Z,17.44
2022-08-07T07:19:57.052Z,17.59
2022-08-07T07:24:08.378Z,18.03
2022-08-07T07:26:32.361Z,17.79
2022-08-07T07:29:56.761Z,17.90
2022-08-07T07:32:25.642Z,18.18
2022-08-07T07:35:14.603Z,18.17
2022-08-07T07:38:04.800Z,18.27
2022-08-07T07:41:02.369Z,18.52
2022-08-07T07:44:16.726Z,18.65
2022-08-07T07:47:14.014Z,18.74
2022-08-07T07:50:34.647Z,19.01
2022-08-07T07:53:13.631Z,19.11
2022-08-07T07:56:12.663Z,19.38
2022-08-07T07:59:06.032Z,19.41
2022-08-07T08:02:01.635Z,19.52
2022-08-07T08:04:53.581Z,19.47
2022-08-07T08:07:59.717Z,19.78
2022-08-07T08:10:49.289Z,20.01
2022-08-07T08:13:54.996Z,20.35
2022-08-07T08:16:50.404Z,20.19
2022-08-07T08:20:18.311Z,19.99
2022-08-07T08:23:08.341Z,20.42
2022-08-07T08:26:18.761Z,20.52
2022-08-07T08:29:09.426Z,20.75
2022-08-07T08:31:58.777Z,20.83
2022-08-07T08:35:06.239Z,20.87
2022-08-07T08:42:09.244Z,21.39
2022-08-07T08:59:08.656Z,22.82
2022-08-07T09:02:24.736Z,22.92
2022-08-07T09:05:55.842Z,23.36
2022-08-07T09:09:09.712Z,22.46
2022-08-07T09:12:31.094Z,23.05
2022-08-07T09:16:22.942Z,22.95
2022-08-07T09:19:53.690Z,22.89
2022-08-07T09:24:33.530Z,23.16
2022-08-07T09:26:28.652Z,23.49
2022-08-07T09:30:04.270Z,23.43
2022-08-07T09:33:05.533Z,23.22
2022-08-07T09:36:22.887Z,23.76
2022-08-07T09:39:55.559Z,24.10
2022-08-07T09:42:58.726Z,23.74
2022-08-07T09:47:42.329Z,23.97
2022-08-07T09:50:01.995Z,23.46
2022-08-07T09:52:59.543Z,23.80
2022-08-07T09:56:42.093Z,23.72
2022-08-07T10:00:00.613Z,24.05
2022-08-07T10:04:05.371Z,24.40
2022-08-07T10:06:49.100Z,24.67
2022-08-07T10:09:59.264Z,24.68
2022-08-07T10:12:53.605Z,24.60
2022-08-07T10:16:10.015Z,24.89
2022-08-07T10:19:31.374Z,25.82
2022-08-07T10:23:02.225Z,25.80
2022-08-07T10:26:17.751Z,26.15
2022-08-07T10:29:51.561Z,25.74
2022-08-07T10:32:59.626Z,26.16
2022-08-07T10:36:05.581Z,26.03
2022-08-07T10:39:41.518Z,26.06
2022-08-07T10:42:54.603Z,26.35
2022-08-07T10:45:58.324Z,26.18
2022-08-07T10:49:15.002Z,26.52
2022-08-07T10:52:33.671Z,26.05
2022-08-07T10:55:37.783Z,26.04
2022-08-07T10:59:00.137Z,25.25
2022-08-07T11:02:04.800Z,25.29
2022-08-07T11:05:14.025Z,25.40
2022-08-07T11:08:11.843Z,25.17
2022-08-07T11:11:06.476Z,25.36
2022-08-07T11:14:43.411Z,25.57
2022-08-07T11:17:43.112Z,25.83
2022-08-07T11:21:14.201Z,25.16
2022-08-07T11:24:12.143Z,25.91
2022-08-07T11:27:17.777Z,26.01
2022-08-07T11:30:18.218Z,26.16
2022-08-07T11:33:53.831Z,25.84
2022-08-07T11:36:31.290Z,26.53
2022-08-07T11:39:59.109Z,26.18
2022-08-07T11:43:18.619Z,26.66
2022-08-07T11:46:57.245Z,26.32
2022-08-07T11:50:31.263Z,26.25
2022-08-07T11:53:27.735Z,26.60
2022-08-07T11:56:32.910Z,26.87
2022-08-07T12:00:11.913Z,26.59
2022-08-07T12:03:44.541Z,26.34
2022-08-07T12:06:37.378Z,25.69
2022-08-07T12:09:54.119Z,26.77
2022-08-07T12:12:49.543Z,26.37
2022-08-07T12:16:05.453Z,26.52
2022-08-07T12:19:21.627Z,26.78
2022-08-07T12:22:37.934Z,26.74
2022-08-07T12:26:03.200Z,26.44
2022-08-07T12:29:06.868Z,25.85
2022-08-07T12:32:04.974Z,25.37
2022-08-07T12:34:56.587Z,25.41
2022-08-07T12:38:11.205Z,25.37
2022-08-07T12:40:57.547Z,24.94
2022-08-07T12:44:02.704Z,25.20
2022-08-07T12:47:30.396Z,25.14
2022-08-07T12:50:39.510Z,24.30
2022-08-07T12:54:03.370Z,25.04
2022-08-07T12:57:09.455Z,24.85
2022-08-07T13:00:02.286Z,24.47
2022-08-07T13:03:22.992Z,24.80
2022-08-07T13:07:00.500Z,24.35
2022-08-07T13:10:37.664Z,24.27
2022-08-07T13:13:49.196Z,24.60
2022-08-07T13:17:02.659Z,25.26
2022-08-07T13:20:01.263Z,25.75
2022-08-07T13:22:55.972Z,25.35
2022-08-07T13:26:00.781Z,25.10
2022-08-07T13:29:13.085Z,24.93
2022-08-07T13:32:31.845Z,24.54
2022-08-07T13:36:00.483Z,25.52
2022-08-07T13:39:49.049Z,24.94
2022-08-07T13:42:41.492Z,25.26
2022-08-07T13:46:21.233Z,24.89
2022-08-07T13:48:51.909Z,24.97
2022-08-07T13:52:22.843Z,25.19
2022-08-07T13:55:00.656Z,25.73
2022-08-07T13:58:01.708Z,26.02
2022-08-07T14:01:50.996Z,25.43
2022-08-07T14:04:56.907Z,26.24
2022-08-07T14:08:00.085Z,25.94
2022-08-07T14:11:01.870Z,25.88
2022-08-07T14:14:08.186Z,25.77
2022-08-07T14:16:59.984Z,25.04
2022-08-07T14:20:42.032Z,25.01
2022-08-07T14:23:31.481Z,25.85
2022-08-07T14:26:56.896Z,25.15
2022-08-07T14:30:10.247Z,26.08
2022-08-07T14:33:00.165Z,26.02
2022-08-07T14:35:47.971Z,25.53
2022-08-07T14:38:36.073Z,25.12
2022-08-07T14:41:33.856Z,24.99
2022-08-07T14:44:40.609Z,24.86
2022-08-07T14:47:33.346Z,24.77
2022-08-07T14:50:24.478Z,24.63
2022-08-07T14:53:13.838Z,24.16
2022-08-07T14:56:13.115Z,24.21
2022-08-07T15:00:04.723Z,24.35
2022-08-07T15:02:32.170Z,24.24
2022-08-07T15:05:23.761Z,24.15
2022-08-07T15:08:14.001Z,23.97
2022-08-07T15:11:14.986Z,24.12
2022-08-07T15:17:17.244Z,24.16
2022-08-07T15:20:31.118Z,24.71
2022-08-07T15:26:44.720Z,25.49
2022-08-07T15:30:10.103Z,25.64
2022-08-07T15:33:03.806Z,25.90
2022-08-07T15:36:01.506Z,25.14
2022-08-07T15:42:45.731Z,25.37
2022-08-07T15:45:25.130Z,25.54
2022-08-07T15:48:37.004Z,25.43
2022-08-07T15:55:02.346Z,25.68
2022-08-07T15:58:00.270Z,26.09
2022-08-07T16:00:50.089Z,26.36
2022-08-07T16:03:55.511Z,26.25
2022-08-07T16:06:55.591Z,26.91
2022-08-07T16:10:27.873Z,26.87
2022-08-07T16:13:58.099Z,26.70
2022-08-07T16:17:03.145Z,27.00
2022-08-07T16:20:33.329Z,26.91
2022-08-07T16:23:55.050Z,27.60
2022-08-07T16:27:18.259Z,27.70
2022-08-07T16:30:30.723Z,27.77
2022-08-07T16:34:01.436Z,27.73
2022-08-07T16:38:02.929Z,28.36
2022-08-07T16:40:28.272Z,29.28
2022-08-07T16:44:02.652Z,29.13
2022-08-07T16:47:49.602Z,29.26
2022-08-07T16:50:48.139Z,28.36
2022-08-07T16:54:12.185Z,27.69
2022-08-07T16:57:06.287Z,26.84
2022-08-07T17:00:12.079Z,26.40
2022-08-07T17:03:17.481Z,25.70
2022-08-07T17:06:31.049Z,25.30
2022-08-07T17:10:06.913Z,25.19
2022-08-07T17:13:23.359Z,24.88
2022-08-07T17:16:11.157Z,24.83
2022-08-07T17:19:03.961Z,24.74
2022-08-07T17:21:58.998Z,24.47
2022-08-07T17:24:58.154Z,24.25
2022-08-07T17:28:00.659Z,24.52
2022-08-07T17:31:16.703Z,24.34
2022-08-07T17:34:33.266Z,24.15
2022-08-07T17:38:05.788Z,24.25
2022-08-07T17:40:58.954Z,24.08
2022-08-07T17:44:34.074Z,23.64
2022-08-07T17:47:41.747Z,23.59
2022-08-07T17:50:49.111Z,23.29
2022-08-07T17:54:00.208Z,23.43
2022-08-07T17:57:01.470Z,23.27
2022-08-07T17:59:54.986Z,23.05
2022-08-07T18:03:09.134Z,22.79
2022-08-07T18:06:06.674Z,22.56
2022-08-07T18:09:05.834Z,22.54
2022-08-07T18:12:27.923Z,22.42
2022-08-07T18:15:51.805Z,22.31
2022-08-07T18:21:10.311Z,22.26
2022-08-07T18:22:11.483Z,22.04
2022-08-07T18:25:19.260Z,21.94
2022-08-07T18:28:58.160Z,21.74
2022-08-07T18:31:51.433Z,21.41
2022-08-07T18:35:03.055Z,21.32
2022-08-07T18:38:58.643Z,21.15
2022-08-07T18:41:24.505Z,21.00
2022-08-07T18:45:43.304Z,20.63
2022-08-07T18:49:23.698Z,20.51
2022-08-07T18:52:34.343Z,20.35
2022-08-07T18:55:42.437Z,20.21
2022-08-07T18:58:51.655Z,19.94
2022-08-07T19:02:34.486Z,19.80
2022-08-07T19:06:01.910Z,19.62
2022-08-07T19:08:58.590Z,19.42
2022-08-07T19:12:11.390Z,19.34
2022-08-07T19:16:03.792Z,19.21
2022-08-07T19:18:35.905Z,19.08
2022-08-07T19:21:56.876Z,18.95
2022-08-07T19:24:53.042Z,18.86
2022-08-07T19:30:54.654Z,18.74
2022-08-07T19:31:41.480Z,18.63
2022-08-07T19:34:03.191Z,18.52
2022-08-07T19:36:53.523Z,18.41
2022-08-07T19:39:57.603Z,18.30
2022-08-07T19:42:49.703Z,18.22
2022-08-07T19:46:05.820Z,18.17
2022-08-07T19:48:56.034Z,18.10
2022-08-07T19:58:13.976Z,17.81
2022-08-07T20:01:09.677Z,17.72
2022-08-07T20:04:31.623Z,17.65
2022-08-07T20:07:14.226Z,17.55
2022-08-07T20:10:35.919Z,17.47
2022-08-07T20:13:38.094Z,17.42
2022-08-07T20:16:36.459Z,17.31
2022-08-07T20:19:28.885Z,17.30
2022-08-07T20:22:40.091Z,17.20
2022-08-07T20:25:32.007Z,17.14
2022-08-07T20:28:30.913Z,17.10
2022-08-07T20:31:21.151Z,17.05
2022-08-07T20:34:09.932Z,17.03
2022-08-07T20:36:58.678Z,17.04
2022-08-07T20:40:02.597Z,17.02
2022-08-07T20:42:56.689Z,16.93
2022-08-07T20:46:29.775Z,16.86
2022-08-07T20:49:58.915Z,16.88
2022-08-07T20:52:17.240Z,16.78
2022-08-07T20:55:08.698Z,16.74
2022-08-07T20:58:03.491Z,16.68
2022-08-07T21:01:03.467Z,16.63
2022-08-07T21:04:13.367Z,16.63
2022-08-07T21:07:04.473Z,16.51
2022-08-07T21:10:03.475Z,16.48
2022-08-07T21:12:54.921Z,16.42
2022-08-07T21:15:47.721Z,16.36
2022-08-07T21:18:50.422Z,16.27
2022-08-07T21:21:56.709Z,16.24
2022-08-07T21:25:11.727Z,16.15
2022-08-07T21:28:47.722Z,16.02
2022-08-07T21:32:03.700Z,16.02
2022-08-07T21:34:59.257Z,15.92
2022-08-07T21:38:00.321Z,15.81
2022-08-07T21:41:26.362Z,15.82
2022-08-07T21:44:28.421Z,15.67
2022-08-07T21:47:26.136Z,15.66
2022-08-07T21:50:24.518Z,15.61
2022-08-07T21:53:32.471Z,15.61
2022-08-07T21:56:36.407Z,15.63
2022-08-07T22:00:06.141Z,15.54
2022-08-07T22:03:09.836Z,15.51
2022-08-07T22:06:30.425Z,15.52
2022-08-07T22:09:28.189Z,15.39
2022-08-07T22:12:38.455Z,15.36
2022-08-07T22:16:39.067Z,15.28
2022-08-07T22:19:08.471Z,15.13
2022-08-07T22:22:21.086Z,15.13
2022-08-07T22:25:42.841Z,15.17
2022-08-07T22:29:08.922Z,15.08
2022-08-07T22:32:08.921Z,15.04
2022-08-07T22:35:05.009Z,14.90
2022-08-07T22:38:24.187Z,14.83
2022-08-07T22:41:22.317Z,14.80
2022-08-07T22:44:34.476Z,14.82
2022-08-07T22:47:35.516Z,14.72
2022-08-07T22:51:01.692Z,14.67
2022-08-07T22:54:12.173Z,14.68
2022-08-07T22:57:26.195Z,14.57
2022-08-07T23:00:18.984Z,14.57
2022-08-07T23:03:58.592Z,14.47
2022-08-07T23:07:02.766Z,14.45
2022-08-07T23:10:38.374Z,14.38
2022-08-07T23:14:16.018Z,14.33
2022-08-07T23:17:03.970Z,14.32
2022-08-07T23:20:40.403Z,14.21
2022-08-07T23:24:06.356Z,14.31
2022-08-07T23:27:34.564Z,14.30
2022-08-07T23:30:37.498Z,14.31
2022-08-07T23:34:36.244Z,14.29
2022-08-07T23:38:00.896Z,14.32
2022-08-07T23:40:56.614Z,14.26
2022-08-07T23:44:41.434Z,14.14
2022-08-07T23:47:47.811Z,13.99
2022-08-07T23:50:57.734Z,13.99
2022-08-07T23:54:44.096Z,13.99
2022-08-07T23:57:41.663Z,14.03
